CW8468 Weather Reports


Display with metric or nautical units.
time (UTC)temp
F
wind
direction
speed
MPH
gust
MPH
rain 1hr
in
rain 24hr
in
rain mn
in
humidity
%
barometer
mb
20220121114130 35 337 2.0 9.0 0.00 0.08 0.01 65 1027.1
20220121113630 35 336 3.0 9.0 0.00 0.08 0.01 65 1027.0
20220121112630 35 315 4.0 9.0 0.00 0.08 0.01 65 1026.8
20220121112130 35 329 4.0 9.0 0.00 0.08 0.01 65 1026.7
20220121111630 35 333 1.0 3.0 0.00 0.08 0.01 65 1026.7
20220121111130 35 333 1.0 7.0 0.00 0.08 0.01 65 1026.8
20220121110630 35 340 3.0 5.0 0.00 0.08 0.01 66 1026.7
20220121110130 35 338 0.0 0.0 0.00 0.08 0.01 66 1026.7
20220121105630 35 321 4.0 8.0 0.00 0.08 0.01 66 1026.6
20220121104630 35 338 2.0 5.0 0.00 0.08 0.01 66 1026.6
20220121104130 36 336 1.0 8.0 0.00 0.08 0.01 66 1026.5
20220121103630 36 333 1.0 7.0 0.00 0.08 0.01 66 1026.4
20220121103130 36 328 3.0 3.0 0.00 0.08 0.01 66 1026.5
20220121101129 36 328 0.0 5.0 0.00 0.08 0.01 67 1026.8
20220121100129 36 329 0.0 0.0 0.00 0.08 0.01 68 1026.8
20220121094629 36 355 3.0 4.0 0.00 0.08 0.01 68 1026.5
20220121094129 36 340 3.0 7.0 0.00 0.08 0.01 69 1026.7
20220121093629 36 345 1.0 7.0 0.00 0.08 0.01 69 1026.7
20220121092129 36 355 3.0 9.0 0.00 0.08 0.01 71 1026.4
20220121091629 36 344 1.0 1.0 0.00 0.08 0.01 71 1026.4
20220121090629 36 338 5.0 7.0 0.00 0.08 0.01 73 1026.2
20220121085629 36 331 2.0 9.0 0.00 0.08 0.01 74 1026.6
20220121085129 36 338 3.0 9.0 0.00 0.08 0.01 74 1026.2
20220121084629 36 332 0.0 9.0 0.00 0.08 0.01 75 1026.4
20220121083128 36 333 1.0 2.0 0.00 0.08 0.01 76 1026.4
20220121082128 35 346 0.0 5.0 0.00 0.08 0.01 78 1026.5
20220121081628 35 348 3.0 3.0 0.00 0.08 0.01 78 1026.7
20220121081128 35 355 3.0 7.0 0.00 0.08 0.01 78 1026.7
20220121080628 35 5 3.0 7.0 0.00 0.08 0.01 79 1027.0
20220121075628 35 345 0.0 10.0 0.00 0.08 0.01 79 1026.9
20220121075128 35 335 3.0 7.0 0.00 0.08 0.01 80 1027.2
20220121074628 35 348 0.0 2.0 0.00 0.08 0.01 80 1027.2
20220121074128 35 336 0.0 10.0 0.00 0.08 0.01 81 1027.1
20220121072628 35 355 3.0 7.0 0.00 0.08 0.01 82 1027.4
20220121071628 35 336 4.0 4.0 0.00 0.08 0.01 82 1027.5
20220121064128 35 349 2.0 8.0 0.02 0.08 0.01 83 1027.6
20220121063127 35 333 1.0 3.0 0.02 0.08 0.01 84 1028.0
20220121062127 35 338 0.0 7.0 0.02 0.08 0.01 84 1028.3
20220121061627 35 346 1.0 3.0 0.02 0.08 0.01 84 1028.4
20220121061127 35 342 0.0 10.0 0.01 0.07 0.00 84 1027.8
20220121060627 35 340 3.0 7.0 0.01 0.07 0.00 84 1027.9
20220121055627 35 329 0.0 7.0 0.03 0.07 0.07 83 1028.3
20220121054127 35 322 0.0 7.0 0.04 0.06 0.06 83 1028.6
20220121053627 35 335 1.0 5.0 0.04 0.06 0.06 83 1028.5
20220121053127 35 333 3.0 5.0 0.04 0.06 0.06 83 1028.5
20220121052627 35 323 0.0 8.0 0.05 0.06 0.06 82 1028.5
20220121052127 35 321 3.0 8.0 0.05 0.06 0.06 82 1028.7
20220121051627 35 326 4.0 4.0 0.05 0.06 0.06 82 1028.9
20220121050627 35 321 3.0 9.0 0.05 0.06 0.06 81 1028.6
20220121050127 36 336 2.0 4.0 0.05 0.06 0.06 81 1028.6
20220121045127 36 334 0.0 4.0 0.04 0.06 0.05 79 1028.4
20220121044127 36 337 0.0 8.0 0.03 0.06 0.04 78 1028.4
20220121043126 36 342 2.0 4.0 0.01 0.04 0.02 77 1028.7
20220121042627 36 332 0.0 8.0 0.01 0.05 0.02 76 1028.7
20220121041126 36 338 3.0 8.0 0.00 0.04 0.01 75 1028.6
20220121040626 36 355 0.0 8.0 0.00 0.04 0.01 74 1028.5
20220121040126 36 15 0.0 2.0 0.00 0.04 0.01 74 1028.4
20220121034626 36 344 3.0 8.0 0.01 0.08 0.01 74 1028.2
20220121034126 36 346 3.0 8.0 0.01 0.16 0.01 73 1028.1
20220121033626 36 278 7.0 7.0 0.01 0.16 0.01 73 1028.0
20220121032626 36 346 3.0 9.0 0.01 0.16 0.01 73 1028.0
20220121032126 36 346 0.0 9.0 0.01 0.16 0.01 73 1027.8
20220121031626 36 355 4.0 8.0 0.01 0.16 0.01 72 1027.8
20220121031126 36 276 5.0 10.0 0.01 0.16 0.01 72 1027.9
20220121030126 36 313 5.0 7.0 0.01 0.16 0.01 72 1027.9
20220121025126 36 331 2.0 10.0 0.01 0.16 0.01 72 1028.0
20220121024125 36 9 1.0 10.0 0.00 0.15 0.00 71 1027.7
20220121023626 37 313 3.0 9.0 0.00 0.15 0.00 71 1027.7
20220121022625 37 342 2.0 10.0 0.00 0.16 0.00 72 1027.9
20220121022125 37 336 3.0 8.0 0.00 0.16 0.00 73 1027.8
20220121020625 37 321 2.0 8.0 0.00 0.17 0.00 73 1027.7
20220121015125 37 333 0.0 7.0 0.00 0.29 0.00 72 1027.6
20220121014625 37 321 2.0 2.0 0.00 0.29 0.00 72 1027.5
20220121014125 37 336 2.0 8.0 0.00 0.31 0.00 72 1027.3
20220121013625 37 333 3.0 7.0 0.00 0.31 0.00 72 1027.4
20220121012125 37 355 3.0 8.0 0.00 0.31 0.00 72 1027.3
20220121011125 38 5 3.0 9.0 0.00 0.31 0.00 72 1027.2
20220121010625 38 328 3.0 9.0 0.00 0.31 0.00 72 1027.1
20220121010125 38 338 2.0 4.0 0.00 0.31 0.00 71 1027.0
20220121005125 38 10 0.0 9.0 0.00 0.31 0.00 71 1026.7
20220121004125 38 337 0.0 8.0 0.00 0.31 0.00 70 1026.6
20220121003625 38 22 3.0 5.0 0.00 0.31 0.00 70 1026.3
20220121002624 38 13 0.0 10.0 0.00 0.31 0.00 68 1026.4
20220121002124 39 337 4.0 9.0 0.00 0.31 0.00 68 1026.2
20220121001624 39 326 3.0 5.0 0.00 0.31 0.00 67 1026.1
20220121000624 39 341 2.0 8.0 0.00 0.31 0.00 66 1026.1
20220121000124 39 322 3.0 8.0 0.00 0.31 0.00 65 1026.1
20220120235624 39 303 4.0 9.0 0.00 0.31 0.00 65 1026.0
20220120235124 39 11 4.0 9.0 0.00 0.31 0.00 66 1025.7
20220120234624 40 5 3.0 5.0 0.00 0.31 0.00 65 1025.3
20220120234124 40 323 7.0 14.0 0.00 0.31 0.00 65 1025.5
20220120233624 40 334 4.0 14.0 0.00 0.31 0.00 65 1025.4
20220120233124 40 341 10.0 14.0 0.00 0.31 0.00 66 1025.3
20220120232124 40 345 7.0 12.0 0.00 0.31 0.00 67 1024.9
20220120231624 40 337 11.0 12.0 0.00 0.31 0.00 68 1024.8
20220120225623 40 338 5.0 11.0 0.00 0.31 0.00 66 1024.6
20220120224623 41 311 3.0 9.0 0.00 0.31 0.00 66 1024.5
20220120223623 41 336 7.0 12.0 0.00 0.31 0.00 64 1024.3
20220120222623 41 350 7.0 14.0 0.00 0.31 0.00 61 1024.5
20220120222123 41 22 5.0 10.0 0.00 0.31 0.00 61 1024.5
20220120221623 41 5 8.0 10.0 0.00 0.31 0.00 61 1024.5
20220120221123 41 313 4.0 14.0 0.00 0.31 0.00 61 1024.9
20220120220123 42 337 8.0 9.0 0.00 0.31 0.00 62 1024.8
20220120215623 42 18 7.0 13.0 0.00 0.31 0.00 62 1024.7
20220120214123 42 331 9.0 13.0 0.00 0.31 0.00 63 1024.5
20220120212623 43 344 3.0 12.0 0.00 0.31 0.00 64 1024.6
20220120212123 43 355 9.0 11.0 0.00 0.31 0.00 64 1024.6
20220120211623 43 338 11.0 11.0 0.00 0.31 0.00 64 1024.3
20220120211123 43 313 3.0 17.0 0.00 0.32 0.00 64 1024.6
20220120210623 43 337 9.0 12.0 0.00 0.32 0.00 65 1024.7
20220120205623 43 329 3.0 11.0 0.00 0.32 0.00 65 1024.4
20220120202622 43 360 3.0 10.0 0.00 0.54 0.00 66 1024.8
20220120202122 43 22 3.0 10.0 0.00 0.54 0.00 66 1025.0
20220120201622 42 11 3.0 4.0 0.00 0.54 0.00 65 1024.9
20220120201122 42 335 0.0 11.0 0.00 0.54 0.00 65 1025.0
20220120200122 42 305 4.0 11.0 0.00 0.54 0.00 65 1025.0
20220120195122 42 355 7.0 13.0 0.00 0.59 0.00 65 1025.2
20220120194622 42 336 8.0 8.0 0.00 0.59 0.00 65 1025.2
20220120193622 42 14 7.0 14.0 0.00 0.59 0.00 65 1025.3
20220120192622 42 16 4.0 16.0 0.00 0.59 0.00 65 1025.2
20220120192122 42 355 7.0 16.0 0.00 0.59 0.00 65 1025.4
20220120191622 42 355 15.0 15.0 0.00 0.59 0.00 65 1025.4
20220120190622 42 327 5.0 9.0 0.00 0.59 0.00 67 1025.4
20220120185122 42 9 8.0 17.0 0.00 0.59 0.00 66 1025.6
20220120183121 42 355 3.0 10.0 0.00 0.59 0.00 66 1025.7
20220120182621 42 39 3.0 14.0 0.00 0.59 0.00 67 1025.7
20220120182121 42 28 5.0 14.0 0.00 0.59 0.00 67 1025.8
20220120180621 42 345 12.0 15.0 0.00 0.59 0.00 68 1026.1
20220120175621 41 327 13.0 15.0 0.00 0.59 0.00 69 1026.4
20220120175121 41 348 5.0 15.0 0.00 0.59 0.00 69 1026.5
20220120174621 41 333 3.0 14.0 0.00 0.59 0.00 69 1026.6
20220120173621 41 342 3.0 12.0 0.00 0.59 0.00 70 1026.6
20220120171621 41 17 4.0 9.0 0.00 0.59 0.00 70 1026.6
20220120170621 40 344 3.0 11.0 0.00 0.59 0.00 71 1027.1
20220120170121 40 333 8.0 8.0 0.00 0.59 0.00 71 1027.0
20220120165121 40 9 3.0 14.0 0.00 0.59 0.00 71 1026.9
20220120164620 40 31 7.0 14.0 0.00 0.59 0.00 71 1027.0
20220120164120 40 330 10.0 12.0 0.00 0.59 0.00 72 1027.1
20220120163620 40 346 10.0 12.0 0.00 0.59 0.00 72 1026.9
20220120163120 40 330 10.0 11.0 0.00 0.59 0.00 73 1026.9
20220120162120 40 343 9.0 13.0 0.00 0.59 0.00 73 1027.2
20220120161620 40 319 4.0 5.0 0.00 0.59 0.00 74 1026.8
20220120160620 40 335 5.0 11.0 0.00 0.59 0.00 75 1026.6
20220120155620 40 44 2.0 13.0 0.00 0.59 0.00 75 1026.3
20220120155120 40 321 10.0 13.0 0.00 0.59 0.00 76 1026.2
20220120154620 40 316 8.0 8.0 0.00 0.59 0.00 75 1025.9
20220120154120 40 348 4.0 16.0 0.00 0.59 0.00 75 1026.0
20220120153620 40 5 4.0 16.0 0.00 0.59 0.00 76 1026.0
20220120153120 40 40 6.0 7.0 0.00 0.59 0.00 76 1026.1
20220120152620 40 339 10.0 17.0 0.00 0.59 0.00 76 1026.0
20220120151620 40 360 5.0 8.0 0.00 0.59 0.00 76 1025.5
20220120151120 40 340 2.0 18.0 0.00 0.59 0.00 77 1025.3
20220120150619 40 26 4.0 18.0 0.00 0.59 0.00 77 1025.5
20220120150120 40 342 12.0 14.0 0.00 0.59 0.00 77 1025.5
20220120145120 40 22 0.0 16.0 0.00 0.59 0.00 78 1025.4
20220120144120 40 28 1.0 13.0 0.00 0.59 0.00 78 1025.2
20220120143619 40 5 11.0 13.0 0.00 0.59 0.00 79 1025.0
20220120143119 40 332 5.0 13.0 0.00 0.59 0.00 79 1025.0
20220120141619 40 317 7.0 10.0 0.00 0.59 0.00 80 1024.5
20220120140619 40 341 2.0 9.0 0.00 0.59 0.00 81 1024.6
20220120135119 40 344 9.0 13.0 0.00 0.59 0.00 80 1024.2
20220120134619 41 5 11.0 12.0 0.00 0.59 0.00 80 1024.0
20220120133619 41 348 4.0 18.0 0.00 0.59 0.00 80 1023.9
20220120133119 41 26 3.0 10.0 0.00 0.59 0.00 80 1024.1
20220120132119 41 24 8.0 14.0 0.00 0.59 0.00 80 1023.9
20220120131619 41 342 10.0 10.0 0.00 0.59 0.00 80 1023.9
20220120130618 41 13 3.0 13.0 0.00 0.59 0.00 80 1024.0
20220120130118 41 49 9.0 9.0 0.00 0.59 0.00 80 1024.0
20220120124118 42 333 9.0 15.0 0.00 0.59 0.00 80 1023.8
20220120123618 42 10 3.0 15.0 0.00 0.59 0.00 81 1023.5
20220120122618 42 341 3.0 17.0 0.00 0.59 0.00 81 1023.5
20220120120618 42 322 3.0 13.0 0.00 0.59 0.00 82 1023.0
20220120114618 42 315 0.0 3.0 0.00 0.59 0.00 82 1022.7